Cadiz, KY

4:49 AM CST on January 21, 2017 (GMT -0600)
enchanted shores | | Change Station

Elev 404 ft 36.86 °N, 87.94 °W | Updated 20 seconds ago

Mostly Cloudy
Mostly Cloudy
57.7 °F
Feels Like 57.7 °F
N
2.0
Wind Variable Wind from East

Today
High -- | Low -- °F
--% Chance of Precip.
Yesterday
High -- | Low -- °F
Precip. -- in
Pressure 29.70 in
Visibility 10.0 miles
Clouds Few 9000 ft
Dew Point 50 °F
Humidity 76%
Rainfall 0.00 in
Snow Depth Not available.
7:00 AM 5:05 PM
Last Quarter, 36% visible
METAR KHOP 210958Z AUTO 15006KT 10SM FEW090 14/12 A2970 RMK AO2 SLP057 T01370115
Pressure 29.70 in
Visibility 10.0 miles
Clouds Few 9000 ft
Dew Point 50 °F
Humidity 76%
Rainfall 0.00 in
Snow Depth Not available.
7:00 AM 5:05 PM
Last Quarter, 36% visible
METAR KHOP 210958Z AUTO 15006KT 10SM FEW090 14/12 A2970 RMK AO2 SLP057 T01370115

Get Your Daily Forecast Email!

Thanks for signing up!

Be on the lookout for a verification email in your inbox.

You'll start receiving the daily forecast at 8 AM.

×

10-Day Weather Forecast

Almanac

Astronomy

Jan. 21, 2017 Rise Set
Actual Time
Civil Twilight
Nautical Twilight
Astronomical Twilight
Moon
Length of Visible Light
Length of Day
Tomorrow will be .
, % of the Moon is Illuminated

Today's Extremes

State Highs State Lows

Community

WunderPhotos

Upload Photos

1,962,540 photos uploaded!

WunderBlog® & News

Nearby

Air Quality

  Air Quality AQ Index Pollutant
Not available.

Snow Depth

Station Depth Elevation

Earthquake Activity

City Distance Mag. Time & Date
Minimum magnitude displayed is 2.5.

Coastal Water Temperatures

Place Temperature

Stations

Nearby Weather Stations

Station Location Temp. Windchill Dew Point Humidity Wind Precip. Elev Updated Type
                   

Watches & Warnings

There are currently no watches in effect.